sensor_id;sensor_type;location;lat;lon;timestamp;temperature;humidity
68476;DHT22;55464;48.266;14.188;2023-02-28T00:00:23;0.60;66.00
68476;DHT22;55464;48.266;14.188;2023-02-28T00:02:49;0.60;66.00
68476;DHT22;55464;48.266;14.188;2023-02-28T00:05:16;0.50;65.90
68476;DHT22;55464;48.266;14.188;2023-02-28T00:07:42;0.50;65.90
68476;DHT22;55464;48.266;14.188;2023-02-28T00:10:10;0.40;65.80
68476;DHT22;55464;48.266;14.188;2023-02-28T00:12:36;0.50;65.70
68476;DHT22;55464;48.266;14.188;2023-02-28T00:15:02;0.40;65.70
68476;DHT22;55464;48.266;14.188;2023-02-28T00:17:27;0.40;65.60
68476;DHT22;55464;48.266;14.188;2023-02-28T00:19:53;0.50;65.60
68476;DHT22;55464;48.266;14.188;2023-02-28T00:22:21;0.40;65.60
68476;DHT22;55464;48.266;14.188;2023-02-28T00:24:47;0.30;65.90
68476;DHT22;55464;48.266;14.188;2023-02-28T00:27:13;0.30;66.20
68476;DHT22;55464;48.266;14.188;2023-02-28T00:29:38;0.30;65.80
68476;DHT22;55464;48.266;14.188;2023-02-28T00:32:04;0.30;66.00
68476;DHT22;55464;48.266;14.188;2023-02-28T00:34:30;0.30;66.50
68476;DHT22;55464;48.266;14.188;2023-02-28T00:36:55;0.20;66.60
68476;DHT22;55464;48.266;14.188;2023-02-28T00:39:21;0.20;66.50
68476;DHT22;55464;48.266;14.188;2023-02-28T00:41:47;0.20;66.50
68476;DHT22;55464;48.266;14.188;2023-02-28T00:44:12;0.20;66.60
68476;DHT22;55464;48.266;14.188;2023-02-28T00:46:38;0.30;66.50
68476;DHT22;55464;48.266;14.188;2023-02-28T00:49:03;0.20;66.80
68476;DHT22;55464;48.266;14.188;2023-02-28T00:51:29;0.20;67.10
68476;DHT22;55464;48.266;14.188;2023-02-28T00:53:54;0.20;67.00
68476;DHT22;55464;48.266;14.188;2023-02-28T00:56:20;0.20;66.80
68476;DHT22;55464;48.266;14.188;2023-02-28T00:58:45;0.20;66.90
68476;DHT22;55464;48.266;14.188;2023-02-28T01:01:11;0.10;67.00
68476;DHT22;55464;48.266;14.188;2023-02-28T01:03:37;0.10;67.30
68476;DHT22;55464;48.266;14.188;2023-02-28T01:06:02;0.10;67.40
68476;DHT22;55464;48.266;14.188;2023-02-28T01:08:28;0.10;66.90
68476;DHT22;55464;48.266;14.188;2023-02-28T01:10:53;0.10;67.20
68476;DHT22;55464;48.266;14.188;2023-02-28T01:13:19;0.10;67.20
68476;DHT22;55464;48.266;14.188;2023-02-28T01:15:48;0.10;67.40
68476;DHT22;55464;48.266;14.188;2023-02-28T01:18:14;0.10;67.20
68476;DHT22;55464;48.266;14.188;2023-02-28T01:20:39;0.00;67.10
68476;DHT22;55464;48.266;14.188;2023-02-28T01:23:05;0.10;67.10
68476;DHT22;55464;48.266;14.188;2023-02-28T01:25:30;0.10;67.10
68476;DHT22;55464;48.266;14.188;2023-02-28T01:27:56;0.00;67.10
68476;DHT22;55464;48.266;14.188;2023-02-28T01:30:21;0.00;67.00
68476;DHT22;55464;48.266;14.188;2023-02-28T01:32:47;0.00;67.10
68476;DHT22;55464;48.266;14.188;2023-02-28T01:35:12;0.00;67.10
68476;DHT22;55464;48.266;14.188;2023-02-28T01:37:38;0.00;67.50
68476;DHT22;55464;48.266;14.188;2023-02-28T01:40:04;0.00;67.50
68476;DHT22;55464;48.266;14.188;2023-02-28T01:42:29;0.00;67.60
68476;DHT22;55464;48.266;14.188;2023-02-28T01:47:20;0.00;67.30
68476;DHT22;55464;48.266;14.188;2023-02-28T01:49:46;0.00;67.20
68476;DHT22;55464;48.266;14.188;2023-02-28T01:52:12;0.00;67.20
68476;DHT22;55464;48.266;14.188;2023-02-28T01:54:44;0.00;67.50
68476;DHT22;55464;48.266;14.188;2023-02-28T01:57:13;0.00;67.40
68476;DHT22;55464;48.266;14.188;2023-02-28T02:02:12;-3276.70;67.90
68476;DHT22;55464;48.266;14.188;2023-02-28T02:04:46;0.00;67.70
68476;DHT22;55464;48.266;14.188;2023-02-28T02:07:15;0.00;67.60
68476;DHT22;55464;48.266;14.188;2023-02-28T02:09:41;-3276.70;67.90
68476;DHT22;55464;48.266;14.188;2023-02-28T02:12:12;-3276.70;67.60
68476;DHT22;55464;48.266;14.188;2023-02-28T02:14:59;-3276.70;67.70
68476;DHT22;55464;48.266;14.188;2023-02-28T02:17:29;-3276.70;67.50
68476;DHT22;55464;48.266;14.188;2023-02-28T02:20:06;-3276.70;67.20
68476;DHT22;55464;48.266;14.188;2023-02-28T02:22:37;-3276.70;67.00
68476;DHT22;55464;48.266;14.188;2023-02-28T02:35:28;-3276.60;67.60
68476;DHT22;55464;48.266;14.188;2023-02-28T02:38:16;-3276.60;67.50
68476;DHT22;55464;48.266;14.188;2023-02-28T02:46:25;-3276.60;66.80
68476;DHT22;55464;48.266;14.188;2023-02-28T02:48:52;-3276.60;67.00
68476;DHT22;55464;48.266;14.188;2023-02-28T02:51:20;-3276.50;67.20
68476;DHT22;55464;48.266;14.188;2023-02-28T02:53:49;-3276.50;67.20
68476;DHT22;55464;48.266;14.188;2023-02-28T02:56:18;-3276.50;67.10
68476;DHT22;55464;48.266;14.188;2023-02-28T02:58:44;-3276.60;66.90
68476;DHT22;55464;48.266;14.188;2023-02-28T03:01:14;-3276.60;66.60
68476;DHT22;55464;48.266;14.188;2023-02-28T03:03:39;-3276.50;66.60
68476;DHT22;55464;48.266;14.188;2023-02-28T03:06:05;-3276.50;66.70
68476;DHT22;55464;48.266;14.188;2023-02-28T03:08:35;-3276.50;66.50
68476;DHT22;55464;48.266;14.188;2023-02-28T03:11:02;-3276.60;66.40
68476;DHT22;55464;48.266;14.188;2023-02-28T03:15:57;-3276.50;66.90
68476;DHT22;55464;48.266;14.188;2023-02-28T03:20:59;-3276.50;66.80
68476;DHT22;55464;48.266;14.188;2023-02-28T03:23:30;-3276.40;66.70
68476;DHT22;55464;48.266;14.188;2023-02-28T03:26:04;-3276.50;66.50
68476;DHT22;55464;48.266;14.188;2023-02-28T03:28:37;-3276.40;66.30
68476;DHT22;55464;48.266;14.188;2023-02-28T03:33:36;-3276.40;66.60
68476;DHT22;55464;48.266;14.188;2023-02-28T03:36:13;-3276.40;66.10
68476;DHT22;55464;48.266;14.188;2023-02-28T03:38:41;-3276.50;66.30
68476;DHT22;55464;48.266;14.188;2023-02-28T03:41:15;-3276.40;66.30
68476;DHT22;55464;48.266;14.188;2023-02-28T03:43:43;-3276.40;66.50
68476;DHT22;55464;48.266;14.188;2023-02-28T03:46:10;-3276.40;66.20
68476;DHT22;55464;48.266;14.188;2023-02-28T03:48:47;-3276.40;66.30
68476;DHT22;55464;48.266;14.188;2023-02-28T03:51:15;-3276.30;66.50
68476;DHT22;55464;48.266;14.188;2023-02-28T03:53:44;-3276.40;66.40
68476;DHT22;55464;48.266;14.188;2023-02-28T03:56:17;-3276.40;65.90
68476;DHT22;55464;48.266;14.188;2023-02-28T04:01:37;-3276.40;65.80
68476;DHT22;55464;48.266;14.188;2023-02-28T04:04:03;-3276.40;66.00
68476;DHT22;55464;48.266;14.188;2023-02-28T04:06:30;-3276.30;66.20
68476;DHT22;55464;48.266;14.188;2023-02-28T04:08:56;-3276.30;66.10
68476;DHT22;55464;48.266;14.188;2023-02-28T04:14:03;-3276.30;66.20
68476;DHT22;55464;48.266;14.188;2023-02-28T04:16:29;-3276.30;66.00
68476;DHT22;55464;48.266;14.188;2023-02-28T04:18:55;-3276.30;65.90
68476;DHT22;55464;48.266;14.188;2023-02-28T04:21:30;-3276.30;65.80
68476;DHT22;55464;48.266;14.188;2023-02-28T04:23:56;-3276.30;65.80
68476;DHT22;55464;48.266;14.188;2023-02-28T04:26:36;-3276.30;65.70
68476;DHT22;55464;48.266;14.188;2023-02-28T04:29:03;-3276.30;65.60
68476;DHT22;55464;48.266;14.188;2023-02-28T04:31:29;-3276.30;65.80
68476;DHT22;55464;48.266;14.188;2023-02-28T04:33:54;-3276.30;65.40
68476;DHT22;55464;48.266;14.188;2023-02-28T04:36:20;-3276.30;65.50
68476;DHT22;55464;48.266;14.188;2023-02-28T04:38:48;-3276.30;65.50
68476;DHT22;55464;48.266;14.188;2023-02-28T04:41:14;-3276.20;65.70
68476;DHT22;55464;48.266;14.188;2023-02-28T04:43:39;-3276.30;65.50
68476;DHT22;55464;48.266;14.188;2023-02-28T04:46:05;-3276.30;65.40
68476;DHT22;55464;48.266;14.188;2023-02-28T04:48:32;-3276.30;65.20
68476;DHT22;55464;48.266;14.188;2023-02-28T04:51:02;-3276.30;65.20
68476;DHT22;55464;48.266;14.188;2023-02-28T04:53:28;-3276.30;65.30
68476;DHT22;55464;48.266;14.188;2023-02-28T04:55:54;-3276.20;65.60
68476;DHT22;55464;48.266;14.188;2023-02-28T04:58:20;-3276.20;65.30
68476;DHT22;55464;48.266;14.188;2023-02-28T05:00:48;-3276.20;65.60
68476;DHT22;55464;48.266;14.188;2023-02-28T05:03:13;-3276.20;65.60
68476;DHT22;55464;48.266;14.188;2023-02-28T05:05:39;-3276.20;65.30
68476;DHT22;55464;48.266;14.188;2023-02-28T05:08:04;-3276.30;65.30
68476;DHT22;55464;48.266;14.188;2023-02-28T05:10:30;-3276.30;65.10
68476;DHT22;55464;48.266;14.188;2023-02-28T05:12:56;-3276.30;65.30
68476;DHT22;55464;48.266;14.188;2023-02-28T05:15:21;-3276.20;65.40
68476;DHT22;55464;48.266;14.188;2023-02-28T05:17:47;-3276.20;65.60
68476;DHT22;55464;48.266;14.188;2023-02-28T05:20:13;-3276.10;65.80
68476;DHT22;55464;48.266;14.188;2023-02-28T05:22:39;-3276.10;65.60
68476;DHT22;55464;48.266;14.188;2023-02-28T05:25:05;-3276.10;65.80
68476;DHT22;55464;48.266;14.188;2023-02-28T05:27:30;-3276.10;65.70
68476;DHT22;55464;48.266;14.188;2023-02-28T05:29:56;-3276.10;65.50
68476;DHT22;55464;48.266;14.188;2023-02-28T05:32:22;-3276.20;65.40
68476;DHT22;55464;48.266;14.188;2023-02-28T05:34:47;-3276.00;65.80
68476;DHT22;55464;48.266;14.188;2023-02-28T05:37:13;-3276.00;65.80
68476;DHT22;55464;48.266;14.188;2023-02-28T05:39:39;-3276.10;65.70
68476;DHT22;55464;48.266;14.188;2023-02-28T05:42:05;-3276.10;65.60
68476;DHT22;55464;48.266;14.188;2023-02-28T05:44:31;-3276.20;65.70
68476;DHT22;55464;48.266;14.188;2023-02-28T05:46:57;-3276.20;65.80
68476;DHT22;55464;48.266;14.188;2023-02-28T05:49:22;-3276.10;65.80
68476;DHT22;55464;48.266;14.188;2023-02-28T05:51:48;-3276.10;65.70
68476;DHT22;55464;48.266;14.188;2023-02-28T05:54:14;-3276.10;65.90
68476;DHT22;55464;48.266;14.188;2023-02-28T05:56:39;-3276.00;65.90
68476;DHT22;55464;48.266;14.188;2023-02-28T05:59:06;-3276.00;66.40
68476;DHT22;55464;48.266;14.188;2023-02-28T06:04:00;-3276.20;65.80
68476;DHT22;55464;48.266;14.188;2023-02-28T06:06:26;-3276.20;65.50
68476;DHT22;55464;48.266;14.188;2023-02-28T06:08:52;-3276.10;65.70
68476;DHT22;55464;48.266;14.188;2023-02-28T06:11:17;-3276.00;65.90
68476;DHT22;55464;48.266;14.188;2023-02-28T06:13:45;-3276.10;65.70
68476;DHT22;55464;48.266;14.188;2023-02-28T06:16:10;-3276.10;65.60
68476;DHT22;55464;48.266;14.188;2023-02-28T06:18:36;-3276.20;65.30
68476;DHT22;55464;48.266;14.188;2023-02-28T06:21:02;-3276.20;65.10
68476;DHT22;55464;48.266;14.188;2023-02-28T06:23:28;-3276.30;65.20
68476;DHT22;55464;48.266;14.188;2023-02-28T06:25:53;-3276.20;65.20
68476;DHT22;55464;48.266;14.188;2023-02-28T06:28:21;-3276.30;65.20
68476;DHT22;55464;48.266;14.188;2023-02-28T06:30:46;-3276.30;65.20
68476;DHT22;55464;48.266;14.188;2023-02-28T06:33:12;-3276.40;64.90
68476;DHT22;55464;48.266;14.188;2023-02-28T06:35:37;-3276.40;64.80
68476;DHT22;55464;48.266;14.188;2023-02-28T06:38:03;-3276.50;64.50
68476;DHT22;55464;48.266;14.188;2023-02-28T06:40:29;-3276.50;64.60
68476;DHT22;55464;48.266;14.188;2023-02-28T06:42:59;-3276.50;64.50
68476;DHT22;55464;48.266;14.188;2023-02-28T06:45:24;-3276.50;64.60
68476;DHT22;55464;48.266;14.188;2023-02-28T06:47:51;-3276.60;64.30
68476;DHT22;55464;48.266;14.188;2023-02-28T06:50:17;-3276.50;64.60
68476;DHT22;55464;48.266;14.188;2023-02-28T06:52:44;-3276.70;64.30
68476;DHT22;55464;48.266;14.188;2023-02-28T06:55:10;-3276.70;64.40
68476;DHT22;55464;48.266;14.188;2023-02-28T06:57:36;0.00;64.10
68476;DHT22;55464;48.266;14.188;2023-02-28T07:00:04;0.00;64.20
68476;DHT22;55464;48.266;14.188;2023-02-28T07:02:30;0.00;64.00
68476;DHT22;55464;48.266;14.188;2023-02-28T07:04:57;0.00;64.10
68476;DHT22;55464;48.266;14.188;2023-02-28T07:07:22;0.00;64.00
68476;DHT22;55464;48.266;14.188;2023-02-28T07:09:48;0.00;64.70
68476;DHT22;55464;48.266;14.188;2023-02-28T07:12:13;0.10;63.90
68476;DHT22;55464;48.266;14.188;2023-02-28T07:14:39;0.10;63.80
68476;DHT22;55464;48.266;14.188;2023-02-28T07:17:06;0.10;63.70
68476;DHT22;55464;48.266;14.188;2023-02-28T07:19:31;0.10;63.40
68476;DHT22;55464;48.266;14.188;2023-02-28T07:21:57;0.20;63.40
68476;DHT22;55464;48.266;14.188;2023-02-28T07:24:22;0.30;63.20
68476;DHT22;55464;48.266;14.188;2023-02-28T07:26:51;0.40;63.30
68476;DHT22;55464;48.266;14.188;2023-02-28T07:29:16;0.40;63.40
68476;DHT22;55464;48.266;14.188;2023-02-28T07:31:42;0.40;62.80
68476;DHT22;55464;48.266;14.188;2023-02-28T07:34:08;0.50;62.40
68476;DHT22;55464;48.266;14.188;2023-02-28T07:36:33;0.50;62.70
68476;DHT22;55464;48.266;14.188;2023-02-28T07:38:59;0.50;63.10
68476;DHT22;55464;48.266;14.188;2023-02-28T07:41:25;0.50;63.10
68476;DHT22;55464;48.266;14.188;2023-02-28T07:43:53;0.60;62.40
68476;DHT22;55464;48.266;14.188;2023-02-28T07:46:19;0.60;62.60
68476;DHT22;55464;48.266;14.188;2023-02-28T07:48:46;0.70;62.70
68476;DHT22;55464;48.266;14.188;2023-02-28T07:51:11;0.70;62.70
68476;DHT22;55464;48.266;14.188;2023-02-28T07:53:37;0.80;62.50
68476;DHT22;55464;48.266;14.188;2023-02-28T07:56:03;0.90;62.40
68476;DHT22;55464;48.266;14.188;2023-02-28T07:58:29;0.90;62.50
68476;DHT22;55464;48.266;14.188;2023-02-28T08:00:54;1.00;61.90
68476;DHT22;55464;48.266;14.188;2023-02-28T08:03:21;1.00;61.80
68476;DHT22;55464;48.266;14.188;2023-02-28T08:05:47;1.10;61.80
68476;DHT22;55464;48.266;14.188;2023-02-28T08:08:13;1.10;62.00
68476;DHT22;55464;48.266;14.188;2023-02-28T08:10:39;1.10;61.70
68476;DHT22;55464;48.266;14.188;2023-02-28T08:13:04;1.10;61.90
68476;DHT22;55464;48.266;14.188;2023-02-28T08:15:30;1.20;62.10
68476;DHT22;55464;48.266;14.188;2023-02-28T08:17:55;1.30;61.70
68476;DHT22;55464;48.266;14.188;2023-02-28T08:20:21;1.40;61.20
68476;DHT22;55464;48.266;14.188;2023-02-28T08:22:47;1.30;61.20
68476;DHT22;55464;48.266;14.188;2023-02-28T08:25:13;1.30;61.30
68476;DHT22;55464;48.266;14.188;2023-02-28T08:27:38;1.40;61.80
68476;DHT22;55464;48.266;14.188;2023-02-28T08:30:04;1.50;62.00
68476;DHT22;55464;48.266;14.188;2023-02-28T08:32:30;1.50;61.70
68476;DHT22;55464;48.266;14.188;2023-02-28T08:34:55;1.50;61.80
68476;DHT22;55464;48.266;14.188;2023-02-28T08:37:21;1.50;61.80
68476;DHT22;55464;48.266;14.188;2023-02-28T08:39:46;1.60;61.90
68476;DHT22;55464;48.266;14.188;2023-02-28T08:42:12;1.60;61.30
68476;DHT22;55464;48.266;14.188;2023-02-28T08:44:37;1.60;61.20
68476;DHT22;55464;48.266;14.188;2023-02-28T08:47:03;1.60;61.90
68476;DHT22;55464;48.266;14.188;2023-02-28T08:49:29;1.60;62.50
68476;DHT22;55464;48.266;14.188;2023-02-28T08:51:54;1.70;62.10
68476;DHT22;55464;48.266;14.188;2023-02-28T08:54:22;1.70;62.30
68476;DHT22;55464;48.266;14.188;2023-02-28T08:56:48;1.80;62.20
68476;DHT22;55464;48.266;14.188;2023-02-28T08:59:13;1.80;61.50
68476;DHT22;55464;48.266;14.188;2023-02-28T09:01:39;1.90;62.00
68476;DHT22;55464;48.266;14.188;2023-02-28T09:04:07;1.90;61.40
68476;DHT22;55464;48.266;14.188;2023-02-28T09:06:34;1.90;62.20
68476;DHT22;55464;48.266;14.188;2023-02-28T09:08:59;2.10;61.70
68476;DHT22;55464;48.266;14.188;2023-02-28T09:11:26;2.10;60.90
68476;DHT22;55464;48.266;14.188;2023-02-28T09:13:52;2.10;61.70
68476;DHT22;55464;48.266;14.188;2023-02-28T09:16:17;2.10;61.40
68476;DHT22;55464;48.266;14.188;2023-02-28T09:18:43;2.20;60.80
68476;DHT22;55464;48.266;14.188;2023-02-28T09:21:10;2.30;60.50
68476;DHT22;55464;48.266;14.188;2023-02-28T09:23:39;2.30;60.70
68476;DHT22;55464;48.266;14.188;2023-02-28T09:26:04;2.30;60.50
68476;DHT22;55464;48.266;14.188;2023-02-28T09:28:30;2.30;61.10
68476;DHT22;55464;48.266;14.188;2023-02-28T09:30:56;2.30;61.20
68476;DHT22;55464;48.266;14.188;2023-02-28T09:33:24;2.40;61.90
68476;DHT22;55464;48.266;14.188;2023-02-28T09:35:49;2.60;61.00
68476;DHT22;55464;48.266;14.188;2023-02-28T09:38:16;2.60;60.70
68476;DHT22;55464;48.266;14.188;2023-02-28T09:40:46;2.60;61.70
68476;DHT22;55464;48.266;14.188;2023-02-28T09:43:13;2.70;61.00
68476;DHT22;55464;48.266;14.188;2023-02-28T09:45:41;2.70;61.40
68476;DHT22;55464;48.266;14.188;2023-02-28T09:48:14;2.80;62.00
68476;DHT22;55464;48.266;14.188;2023-02-28T09:50:41;2.80;60.80
68476;DHT22;55464;48.266;14.188;2023-02-28T09:53:13;2.90;61.50
68476;DHT22;55464;48.266;14.188;2023-02-28T09:55:40;2.90;61.30
68476;DHT22;55464;48.266;14.188;2023-02-28T09:58:16;3.00;61.30
68476;DHT22;55464;48.266;14.188;2023-02-28T10:00:44;3.00;62.30
68476;DHT22;55464;48.266;14.188;2023-02-28T10:05:58;3.20;61.50
68476;DHT22;55464;48.266;14.188;2023-02-28T10:08:30;3.20;61.80
68476;DHT22;55464;48.266;14.188;2023-02-28T10:10:58;3.30;62.10
68476;DHT22;55464;48.266;14.188;2023-02-28T10:15:56;3.40;61.20
68476;DHT22;55464;48.266;14.188;2023-02-28T10:18:28;3.50;60.00
68476;DHT22;55464;48.266;14.188;2023-02-28T10:20:55;3.50;61.10
68476;DHT22;55464;48.266;14.188;2023-02-28T10:23:34;3.50;60.30
68476;DHT22;55464;48.266;14.188;2023-02-28T10:26:11;3.60;60.30
68476;DHT22;55464;48.266;14.188;2023-02-28T10:28:37;3.60;60.00
68476;DHT22;55464;48.266;14.188;2023-02-28T10:31:02;3.60;60.30
68476;DHT22;55464;48.266;14.188;2023-02-28T10:33:29;3.70;60.10
68476;DHT22;55464;48.266;14.188;2023-02-28T10:35:56;3.90;59.60
68476;DHT22;55464;48.266;14.188;2023-02-28T10:38:26;3.90;60.20
68476;DHT22;55464;48.266;14.188;2023-02-28T10:41:02;4.00;60.70
68476;DHT22;55464;48.266;14.188;2023-02-28T10:43:28;4.00;60.80
68476;DHT22;55464;48.266;14.188;2023-02-28T10:50:50;4.30;59.50
68476;DHT22;55464;48.266;14.188;2023-02-28T10:53:23;4.30;58.20
68476;DHT22;55464;48.266;14.188;2023-02-28T10:56:00;4.40;59.30
68476;DHT22;55464;48.266;14.188;2023-02-28T10:58:28;4.50;58.30
68476;DHT22;55464;48.266;14.188;2023-02-28T11:00:54;4.70;58.80
68476;DHT22;55464;48.266;14.188;2023-02-28T11:03:37;4.80;58.10
68476;DHT22;55464;48.266;14.188;2023-02-28T11:06:22;4.80;58.30
68476;DHT22;55464;48.266;14.188;2023-02-28T11:08:52;5.10;56.50
68476;DHT22;55464;48.266;14.188;2023-02-28T11:11:18;5.30;56.70
68476;DHT22;55464;48.266;14.188;2023-02-28T11:13:44;5.50;58.50
68476;DHT22;55464;48.266;14.188;2023-02-28T11:16:10;5.60;55.20
68476;DHT22;55464;48.266;14.188;2023-02-28T11:18:41;5.70;56.40
68476;DHT22;55464;48.266;14.188;2023-02-28T11:21:08;5.70;55.50
68476;DHT22;55464;48.266;14.188;2023-02-28T11:23:35;5.80;55.00
68476;DHT22;55464;48.266;14.188;2023-02-28T11:26:02;5.90;54.00
68476;DHT22;55464;48.266;14.188;2023-02-28T11:28:31;5.80;53.50
68476;DHT22;55464;48.266;14.188;2023-02-28T11:31:18;6.00;53.50
68476;DHT22;55464;48.266;14.188;2023-02-28T11:36:20;6.10;54.60
68476;DHT22;55464;48.266;14.188;2023-02-28T11:38:47;6.30;54.90
68476;DHT22;55464;48.266;14.188;2023-02-28T11:46:47;6.70;51.60
68476;DHT22;55464;48.266;14.188;2023-02-28T11:49:22;6.70;52.40
68476;DHT22;55464;48.266;14.188;2023-02-28T11:56:51;7.10;52.00
68476;DHT22;55464;48.266;14.188;2023-02-28T12:20:52;8.30;48.20
68476;DHT22;55464;48.266;14.188;2023-02-28T12:25:50;8.50;48.30
68476;DHT22;55464;48.266;14.188;2023-02-28T12:28:18;8.60;46.00
68476;DHT22;55464;48.266;14.188;2023-02-28T12:31:01;8.70;46.50
68476;DHT22;55464;48.266;14.188;2023-02-28T12:33:33;8.60;46.10
68476;DHT22;55464;48.266;14.188;2023-02-28T12:36:01;8.80;47.80
68476;DHT22;55464;48.266;14.188;2023-02-28T12:38:29;9.00;47.40
68476;DHT22;55464;48.266;14.188;2023-02-28T12:40:57;9.00;46.90
68476;DHT22;55464;48.266;14.188;2023-02-28T12:43:25;9.10;45.50
68476;DHT22;55464;48.266;14.188;2023-02-28T12:45:56;9.10;46.30
68476;DHT22;55464;48.266;14.188;2023-02-28T12:48:40;9.00;45.10
68476;DHT22;55464;48.266;14.188;2023-02-28T12:51:07;9.20;45.40
68476;DHT22;55464;48.266;14.188;2023-02-28T12:56:11;9.30;44.90
68476;DHT22;55464;48.266;14.188;2023-02-28T13:01:29;9.40;44.00
68476;DHT22;55464;48.266;14.188;2023-02-28T13:04:21;9.60;44.80
68476;DHT22;55464;48.266;14.188;2023-02-28T13:07:00;9.80;44.40
68476;DHT22;55464;48.266;14.188;2023-02-28T13:09:33;10.10;44.00
68476;DHT22;55464;48.266;14.188;2023-02-28T13:11:59;10.20;42.60
68476;DHT22;55464;48.266;14.188;2023-02-28T13:16:55;10.40;42.60
68476;DHT22;55464;48.266;14.188;2023-02-28T13:19:22;11.50;40.70
68476;DHT22;55464;48.266;14.188;2023-02-28T13:21:49;12.80;36.90
68476;DHT22;55464;48.266;14.188;2023-02-28T13:29:28;13.30;35.00
68476;DHT22;55464;48.266;14.188;2023-02-28T13:47:42;14.30;34.10
68476;DHT22;55464;48.266;14.188;2023-02-28T13:58:27;14.50;32.90
68476;DHT22;55464;48.266;14.188;2023-02-28T14:03:28;14.10;33.90
68476;DHT22;55464;48.266;14.188;2023-02-28T14:06:08;14.50;33.40
68476;DHT22;55464;48.266;14.188;2023-02-28T14:08:35;14.60;33.40
68476;DHT22;55464;48.266;14.188;2023-02-28T14:11:08;14.90;33.40
68476;DHT22;55464;48.266;14.188;2023-02-28T14:13:42;14.60;33.20
68476;DHT22;55464;48.266;14.188;2023-02-28T14:16:10;14.80;33.80
68476;DHT22;55464;48.266;14.188;2023-02-28T14:18:36;15.00;32.80
68476;DHT22;55464;48.266;14.188;2023-02-28T14:26:48;15.00;32.30
68476;DHT22;55464;48.266;14.188;2023-02-28T14:32:02;16.10;31.00
68476;DHT22;55464;48.266;14.188;2023-02-28T14:37:02;16.30;30.00
68476;DHT22;55464;48.266;14.188;2023-02-28T14:39:28;16.60;29.90
68476;DHT22;55464;48.266;14.188;2023-02-28T14:41:56;16.30;29.80
68476;DHT22;55464;48.266;14.188;2023-02-28T14:44:24;15.70;30.30
68476;DHT22;55464;48.266;14.188;2023-02-28T14:46:52;15.00;31.70
68476;DHT22;55464;48.266;14.188;2023-02-28T14:49:20;13.70;34.70
68476;DHT22;55464;48.266;14.188;2023-02-28T14:51:47;13.40;36.10
68476;DHT22;55464;48.266;14.188;2023-02-28T14:54:14;12.90;36.60
68476;DHT22;55464;48.266;14.188;2023-02-28T14:56:40;12.80;36.80
68476;DHT22;55464;48.266;14.188;2023-02-28T14:59:21;13.00;36.90
68476;DHT22;55464;48.266;14.188;2023-02-28T15:01:48;12.80;36.50
68476;DHT22;55464;48.266;14.188;2023-02-28T15:04:21;12.30;37.50
68476;DHT22;55464;48.266;14.188;2023-02-28T15:07:06;11.80;38.20
68476;DHT22;55464;48.266;14.188;2023-02-28T15:09:32;11.00;39.90
68476;DHT22;55464;48.266;14.188;2023-02-28T15:11:57;10.30;42.40
68476;DHT22;55464;48.266;14.188;2023-02-28T15:14:23;9.90;43.20
68476;DHT22;55464;48.266;14.188;2023-02-28T15:16:51;9.60;43.40
68476;DHT22;55464;48.266;14.188;2023-02-28T15:19:20;9.10;44.90
68476;DHT22;55464;48.266;14.188;2023-02-28T15:21:47;8.60;46.50
68476;DHT22;55464;48.266;14.188;2023-02-28T15:24:16;8.40;47.10
68476;DHT22;55464;48.266;14.188;2023-02-28T15:26:50;8.20;47.10
68476;DHT22;55464;48.266;14.188;2023-02-28T15:29:19;8.10;48.20
68476;DHT22;55464;48.266;14.188;2023-02-28T15:31:48;8.00;47.00
68476;DHT22;55464;48.266;14.188;2023-02-28T15:34:33;7.80;47.90
68476;DHT22;55464;48.266;14.188;2023-02-28T15:36:59;7.50;48.90
68476;DHT22;55464;48.266;14.188;2023-02-28T15:39:26;7.30;49.50
68476;DHT22;55464;48.266;14.188;2023-02-28T15:42:18;7.10;49.90
68476;DHT22;55464;48.266;14.188;2023-02-28T15:44:43;7.10;49.80
68476;DHT22;55464;48.266;14.188;2023-02-28T15:47:14;7.00;50.20
68476;DHT22;55464;48.266;14.188;2023-02-28T15:49:49;6.90;50.30
68476;DHT22;55464;48.266;14.188;2023-02-28T15:52:16;7.00;51.30
68476;DHT22;55464;48.266;14.188;2023-02-28T15:54:43;6.90;50.70
68476;DHT22;55464;48.266;14.188;2023-02-28T15:57:17;6.70;50.60
68476;DHT22;55464;48.266;14.188;2023-02-28T15:59:51;6.70;51.40
68476;DHT22;55464;48.266;14.188;2023-02-28T16:02:19;6.60;51.20
68476;DHT22;55464;48.266;14.188;2023-02-28T16:04:56;6.60;51.00
68476;DHT22;55464;48.266;14.188;2023-02-28T16:07:21;6.60;51.40
68476;DHT22;55464;48.266;14.188;2023-02-28T16:09:47;6.50;51.60
68476;DHT22;55464;48.266;14.188;2023-02-28T16:12:13;6.40;52.10
68476;DHT22;55464;48.266;14.188;2023-02-28T16:14:39;6.40;52.30
68476;DHT22;55464;48.266;14.188;2023-02-28T16:17:27;6.30;52.50
68476;DHT22;55464;48.266;14.188;2023-02-28T16:19:51;6.10;53.10
68476;DHT22;55464;48.266;14.188;2023-02-28T16:22:17;6.20;53.10
68476;DHT22;55464;48.266;14.188;2023-02-28T16:24:42;6.10;52.90
68476;DHT22;55464;48.266;14.188;2023-02-28T16:27:22;6.00;53.50
68476;DHT22;55464;48.266;14.188;2023-02-28T16:29:50;5.90;53.80
68476;DHT22;55464;48.266;14.188;2023-02-28T16:32:15;5.70;54.90
68476;DHT22;55464;48.266;14.188;2023-02-28T16:34:42;5.60;54.80
68476;DHT22;55464;48.266;14.188;2023-02-28T16:37:10;5.60;54.50
68476;DHT22;55464;48.266;14.188;2023-02-28T16:39:36;5.60;54.40
68476;DHT22;55464;48.266;14.188;2023-02-28T16:42:02;5.60;54.60
68476;DHT22;55464;48.266;14.188;2023-02-28T16:44:28;5.60;55.40
68476;DHT22;55464;48.266;14.188;2023-02-28T16:46:54;5.50;55.20
68476;DHT22;55464;48.266;14.188;2023-02-28T16:49:20;5.40;55.40
68476;DHT22;55464;48.266;14.188;2023-02-28T16:51:46;5.40;55.10
68476;DHT22;55464;48.266;14.188;2023-02-28T16:54:11;5.30;55.80
68476;DHT22;55464;48.266;14.188;2023-02-28T16:56:37;5.30;55.70
68476;DHT22;55464;48.266;14.188;2023-02-28T16:59:05;5.30;56.30
68476;DHT22;55464;48.266;14.188;2023-02-28T17:01:30;5.40;55.80
68476;DHT22;55464;48.266;14.188;2023-02-28T17:03:56;5.30;55.70
68476;DHT22;55464;48.266;14.188;2023-02-28T17:06:23;5.20;56.10
68476;DHT22;55464;48.266;14.188;2023-02-28T17:08:49;5.30;55.80
68476;DHT22;55464;48.266;14.188;2023-02-28T17:11:15;5.10;56.00
68476;DHT22;55464;48.266;14.188;2023-02-28T17:13:41;5.20;56.30
68476;DHT22;55464;48.266;14.188;2023-02-28T17:16:10;5.10;55.90
68476;DHT22;55464;48.266;14.188;2023-02-28T17:18:38;5.10;56.40
68476;DHT22;55464;48.266;14.188;2023-02-28T17:21:05;5.00;56.70
68476;DHT22;55464;48.266;14.188;2023-02-28T17:23:34;5.00;56.90
68476;DHT22;55464;48.266;14.188;2023-02-28T17:26:00;5.00;57.00
68476;DHT22;55464;48.266;14.188;2023-02-28T17:28:25;4.90;56.80
68476;DHT22;55464;48.266;14.188;2023-02-28T17:30:51;5.00;56.70